Renfrew, Pennsylvania
Current Conditions -  °F | °C
As of 3:55 PM on Friday 21 Nov 2014 (Local Time) from KBTP Reporting Station
Clear Clear  
Wind Chill: 19°   Ceiling: Unl
Heat Index: 25°   Visibility: 10mi
Dew Point:   Wind: 5mph
Humidity: 46%   Direction: 240°WSW
Pressure: 30.48"   Gusts: NA
Location:  40.81°N, 79.96°W
Report Text: KBTP 212055Z AUTO 24004KT 10SM CLR M04/M14 A3048 RMK AO1 52014
Loading
Personal Weather Stations






























Interactive Weather Map New forecast layout! Learn more

10-Day Weather Forecast

Advertisements
Track Severe Weather on mobile